sensor_id;sensor_type;location;lat;lon;timestamp;pressure;altitude;pressure_sealevel;temperature;humidity
74075;BME280;62428;51.412;5.432;2023-01-28T00:00:29;102738.69;;;2.46;80.94
74075;BME280;62428;51.412;5.432;2023-01-28T00:02:54;102727.25;;;2.45;81.60
74075;BME280;62428;51.412;5.432;2023-01-28T00:05:20;102737.69;;;2.47;81.09
74075;BME280;62428;51.412;5.432;2023-01-28T00:07:51;102735.22;;;2.45;81.22
74075;BME280;62428;51.412;5.432;2023-01-28T00:10:17;102722.13;;;2.44;81.31
74075;BME280;62428;51.412;5.432;2023-01-28T00:12:43;102729.91;;;2.45;82.18
74075;BME280;62428;51.412;5.432;2023-01-28T00:15:09;102730.09;;;2.44;81.48
74075;BME280;62428;51.412;5.432;2023-01-28T00:17:35;102725.81;;;2.43;81.03
74075;BME280;62428;51.412;5.432;2023-01-28T00:20:03;102728.22;;;2.38;81.48
74075;BME280;62428;51.412;5.432;2023-01-28T00:22:29;102727.19;;;2.39;81.67
74075;BME280;62428;51.412;5.432;2023-01-28T00:24:54;102723.91;;;2.37;81.67
74075;BME280;62428;51.412;5.432;2023-01-28T00:27:19;102728.22;;;2.38;82.32
74075;BME280;62428;51.412;5.432;2023-01-28T00:29:45;102731.88;;;2.37;82.00
74075;BME280;62428;51.412;5.432;2023-01-28T00:32:10;102739.03;;;2.36;82.18
74075;BME280;62428;51.412;5.432;2023-01-28T00:34:36;102732.69;;;2.37;82.18
74075;BME280;62428;51.412;5.432;2023-01-28T00:37:01;102732.06;;;2.35;81.75
74075;BME280;62428;51.412;5.432;2023-01-28T00:39:26;102736.75;;;2.33;81.96
74075;BME280;62428;51.412;5.432;2023-01-28T00:41:52;102736.47;;;2.28;81.75
74075;BME280;62428;51.412;5.432;2023-01-28T00:44:19;102735.03;;;2.25;82.17
74075;BME280;62428;51.412;5.432;2023-01-28T00:46:45;102737.88;;;2.24;81.97
74075;BME280;62428;51.412;5.432;2023-01-28T00:49:11;102744.00;;;2.24;81.77
74075;BME280;62428;51.412;5.432;2023-01-28T00:51:36;102739.72;;;2.23;82.45
74075;BME280;62428;51.412;5.432;2023-01-28T00:54:02;102744.00;;;2.24;81.91
74075;BME280;62428;51.412;5.432;2023-01-28T00:56:28;102748.31;;;2.25;82.32
74075;BME280;62428;51.412;5.432;2023-01-28T00:58:53;102748.31;;;2.25;82.33
74075;BME280;62428;51.412;5.432;2023-01-28T01:01:21;102754.41;;;2.26;82.39
74075;BME280;62428;51.412;5.432;2023-01-28T01:03:47;102753.59;;;2.25;82.28
74075;BME280;62428;51.412;5.432;2023-01-28T01:06:22;102755.63;;;2.23;82.23
74075;BME280;62428;51.412;5.432;2023-01-28T01:08:47;102752.34;;;2.21;82.26
74075;BME280;62428;51.412;5.432;2023-01-28T01:11:14;102763.78;;;2.22;81.93
74075;BME280;62428;51.412;5.432;2023-01-28T01:13:40;102762.31;;;2.19;81.86
74075;BME280;62428;51.412;5.432;2023-01-28T01:16:09;102758.81;;;2.19;81.71
74075;BME280;62428;51.412;5.432;2023-01-28T01:18:36;102751.91;;;2.18;81.73
74075;BME280;62428;51.412;5.432;2023-01-28T01:21:02;102757.03;;;2.19;81.97
74075;BME280;62428;51.412;5.432;2023-01-28T01:23:31;102756.00;;;2.20;82.12
74075;BME280;62428;51.412;5.432;2023-01-28T01:25:56;102756.00;;;2.20;81.99
74075;BME280;62428;51.412;5.432;2023-01-28T01:28:23;102756.00;;;2.20;81.76
74075;BME280;62428;51.412;5.432;2023-01-28T01:30:49;102749.06;;;2.19;81.20
74075;BME280;62428;51.412;5.432;2023-01-28T01:33:15;102754.75;;;2.16;81.33
74075;BME280;62428;51.412;5.432;2023-01-28T01:35:41;102751.47;;;2.14;81.10
74075;BME280;62428;51.412;5.432;2023-01-28T01:38:07;102750.63;;;2.14;81.69
74075;BME280;62428;51.412;5.432;2023-01-28T01:40:33;102751.47;;;2.14;81.96
74075;BME280;62428;51.412;5.432;2023-01-28T01:42:58;102740.44;;;2.17;82.32
74075;BME280;62428;51.412;5.432;2023-01-28T01:45:24;102747.41;;;2.18;82.63
74075;BME280;62428;51.412;5.432;2023-01-28T01:48:08;102749.06;;;2.19;81.97
74075;BME280;62428;51.412;5.432;2023-01-28T01:50:50;102755.19;;;2.20;82.06
74075;BME280;62428;51.412;5.432;2023-01-28T01:53:19;102749.06;;;2.19;81.82
74075;BME280;62428;51.412;5.432;2023-01-28T01:55:49;102763.13;;;2.20;81.61
74075;BME280;62428;51.412;5.432;2023-01-28T01:58:18;102752.53;;;2.20;82.15
74075;BME280;62428;51.412;5.432;2023-01-28T02:00:46;102745.38;;;2.20;82.18
74075;BME280;62428;51.412;5.432;2023-01-28T02:03:11;102752.34;;;2.21;82.33
74075;BME280;62428;51.412;5.432;2023-01-28T02:05:38;102755.81;;;2.22;82.10
74075;BME280;62428;51.412;5.432;2023-01-28T02:08:03;102756.63;;;2.22;81.39
74075;BME280;62428;51.412;5.432;2023-01-28T02:10:51;102755.19;;;2.20;81.38
74075;BME280;62428;51.412;5.432;2023-01-28T02:13:18;102754.56;;;2.18;81.01
74075;BME280;62428;51.412;5.432;2023-01-28T02:15:45;102756.75;;;2.14;80.61
74075;BME280;62428;51.412;5.432;2023-01-28T02:18:10;102756.50;;;2.09;80.99
74075;BME280;62428;51.412;5.432;2023-01-28T02:31:41;102751.19;;;2.09;80.28
74075;BME280;62428;51.412;5.432;2023-01-28T02:34:18;102759.31;;;2.07;80.55
74075;BME280;62428;51.412;5.432;2023-01-28T02:36:48;102751.56;;;2.06;79.99
74075;BME280;62428;51.412;5.432;2023-01-28T02:39:22;102758.06;;;2.03;79.85
74075;BME280;62428;51.412;5.432;2023-01-28T02:41:56;102765.84;;;2.05;80.65
74075;BME280;62428;51.412;5.432;2023-01-28T02:44:22;102769.31;;;2.05;80.36
74075;BME280;62428;51.412;5.432;2023-01-28T02:46:51;102770.13;;;2.06;80.14
74075;BME280;62428;51.412;5.432;2023-01-28T02:49:42;102767.66;;;2.04;80.34
74075;BME280;62428;51.412;5.432;2023-01-28T03:00:17;102763.09;;;1.98;79.56
74075;BME280;62428;51.412;5.432;2023-01-28T03:02:52;102764.31;;;1.96;78.73
74075;BME280;62428;51.412;5.432;2023-01-28T03:05:28;102767.31;;;1.92;78.86
74075;BME280;62428;51.412;5.432;2023-01-28T03:07:55;102769.16;;;1.92;78.88
74075;BME280;62428;51.412;5.432;2023-01-28T03:10:24;102774.47;;;1.92;78.65
74075;BME280;62428;51.412;5.432;2023-01-28T03:12:53;102776.28;;;1.91;78.70
74075;BME280;62428;51.412;5.432;2023-01-28T03:15:44;102775.28;;;1.92;79.93
74075;BME280;62428;51.412;5.432;2023-01-28T03:18:49;102768.78;;;1.95;80.30
74075;BME280;62428;51.412;5.432;2023-01-28T03:21:41;102766.34;;;1.94;79.64
74075;BME280;62428;51.412;5.432;2023-01-28T03:24:30;102772.63;;;1.92;78.41
74075;BME280;62428;51.412;5.432;2023-01-28T03:27:31;102772.19;;;1.89;79.43
74075;BME280;62428;51.412;5.432;2023-01-28T03:30:36;102778.47;;;1.88;78.77
74075;BME280;62428;51.412;5.432;2023-01-28T03:33:23;102771.56;;;1.87;78.72
74075;BME280;62428;51.412;5.432;2023-01-28T03:36:08;102791.94;;;1.86;78.61
74075;BME280;62428;51.412;5.432;2023-01-28T03:38:52;102786.81;;;1.85;78.56
74075;BME280;62428;51.412;5.432;2023-01-28T03:41:23;102791.09;;;1.86;78.96
74075;BME280;62428;51.412;5.432;2023-01-28T03:43:49;102786.81;;;1.85;78.59
74075;BME280;62428;51.412;5.432;2023-01-28T03:46:15;102788.63;;;1.84;77.89
74075;BME280;62428;51.412;5.432;2023-01-28T03:48:42;102790.47;;;1.84;77.67
74075;BME280;62428;51.412;5.432;2023-01-28T03:51:08;102788.00;;;1.82;78.00
74075;BME280;62428;51.412;5.432;2023-01-28T03:53:33;102783.53;;;1.83;78.80
74075;BME280;62428;51.412;5.432;2023-01-28T03:55:59;102781.53;;;1.85;78.60
74075;BME280;62428;51.412;5.432;2023-01-28T03:58:24;102776.22;;;1.85;78.34
74075;BME280;62428;51.412;5.432;2023-01-28T04:00:52;102770.72;;;1.86;78.66
74075;BME280;62428;51.412;5.432;2023-01-28T04:03:19;102778.47;;;1.88;78.50
74075;BME280;62428;51.412;5.432;2023-01-28T04:05:58;102778.47;;;1.88;78.39
74075;BME280;62428;51.412;5.432;2023-01-28T04:08:25;102780.31;;;1.87;78.46
74075;BME280;62428;51.412;5.432;2023-01-28T04:10:50;102784.16;;;1.85;78.38
74075;BME280;62428;51.412;5.432;2023-01-28T04:13:15;102794.13;;;1.83;76.95
74075;BME280;62428;51.412;5.432;2023-01-28T04:15:42;102792.31;;;1.83;76.21
74075;BME280;62428;51.412;5.432;2023-01-28T04:18:08;102801.47;;;1.81;75.85
74075;BME280;62428;51.412;5.432;2023-01-28T04:20:34;102810.41;;;1.80;76.36
74075;BME280;62428;51.412;5.432;2023-01-28T04:22:59;102796.97;;;1.81;76.32
74075;BME280;62428;51.412;5.432;2023-01-28T04:25:25;102795.31;;;1.80;75.52
74075;BME280;62428;51.412;5.432;2023-01-28T04:27:50;102799.81;;;1.80;76.00
74075;BME280;62428;51.412;5.432;2023-01-28T04:30:16;102804.28;;;1.79;77.80
74075;BME280;62428;51.412;5.432;2023-01-28T04:32:41;102806.56;;;1.82;77.32
74075;BME280;62428;51.412;5.432;2023-01-28T04:35:07;102796.78;;;1.83;76.65
74075;BME280;62428;51.412;5.432;2023-01-28T04:37:32;102800.44;;;1.82;76.15
74075;BME280;62428;51.412;5.432;2023-01-28T04:39:58;102802.28;;;1.81;75.47
74075;BME280;62428;51.412;5.432;2023-01-28T04:42:23;102794.31;;;1.81;75.29
74075;BME280;62428;51.412;5.432;2023-01-28T04:44:49;102799.16;;;1.78;75.81
74075;BME280;62428;51.412;5.432;2023-01-28T04:47:14;102789.38;;;1.78;76.59
74075;BME280;62428;51.412;5.432;2023-01-28T04:49:39;102797.97;;;1.80;76.12
74075;BME280;62428;51.412;5.432;2023-01-28T04:52:05;102787.34;;;1.80;76.59
74075;BME280;62428;51.412;5.432;2023-01-28T04:54:30;102796.16;;;1.81;77.00
74075;BME280;62428;51.412;5.432;2023-01-28T04:56:55;102792.47;;;1.82;76.27
74075;BME280;62428;51.412;5.432;2023-01-28T04:59:21;102794.94;;;1.83;76.45
74075;BME280;62428;51.412;5.432;2023-01-28T05:01:48;102802.09;;;1.83;77.11
74075;BME280;62428;51.412;5.432;2023-01-28T05:04:14;102798.41;;;1.84;78.21
74075;BME280;62428;51.412;5.432;2023-01-28T05:06:40;102796.41;;;1.86;78.51
74075;BME280;62428;51.412;5.432;2023-01-28T05:09:05;102798.06;;;1.87;79.13
74075;BME280;62428;51.412;5.432;2023-01-28T05:11:31;102803.34;;;1.87;79.44
74075;BME280;62428;51.412;5.432;2023-01-28T05:13:56;102798.69;;;1.89;79.68
74075;BME280;62428;51.412;5.432;2023-01-28T05:16:21;102798.69;;;1.89;80.30
74075;BME280;62428;51.412;5.432;2023-01-28T05:18:47;102807.00;;;1.86;78.60
74075;BME280;62428;51.412;5.432;2023-01-28T05:21:13;102807.19;;;1.84;78.85
74075;BME280;62428;51.412;5.432;2023-01-28T05:23:38;102808.03;;;1.85;79.60
74075;BME280;62428;51.412;5.432;2023-01-28T05:26:04;102804.34;;;1.86;80.21
74075;BME280;62428;51.412;5.432;2023-01-28T05:28:29;102801.69;;;1.86;80.36
74075;BME280;62428;51.412;5.432;2023-01-28T05:30:54;102805.19;;;1.86;80.69
74075;BME280;62428;51.412;5.432;2023-01-28T05:33:20;102804.97;;;1.88;81.31
74075;BME280;62428;51.412;5.432;2023-01-28T05:35:45;102803.34;;;1.87;80.51
74075;BME280;62428;51.412;5.432;2023-01-28T05:38:10;102797.41;;;1.85;80.62
74075;BME280;62428;51.412;5.432;2023-01-28T05:40:36;102792.31;;;1.83;80.41
74075;BME280;62428;51.412;5.432;2023-01-28T05:43:01;102790.66;;;1.82;80.46
74075;BME280;62428;51.412;5.432;2023-01-28T05:45:26;102796.78;;;1.83;81.08
74075;BME280;62428;51.412;5.432;2023-01-28T05:47:52;102797.16;;;1.80;80.46
74075;BME280;62428;51.412;5.432;2023-01-28T05:50:17;102805.47;;;1.77;80.76
74075;BME280;62428;51.412;5.432;2023-01-28T05:52:43;102800.16;;;1.77;81.45
74075;BME280;62428;51.412;5.432;2023-01-28T05:55:09;102798.34;;;1.77;81.95
74075;BME280;62428;51.412;5.432;2023-01-28T05:57:35;102807.94;;;1.78;81.88
74075;BME280;62428;51.412;5.432;2023-01-28T06:00:00;102800.78;;;1.79;81.48
74075;BME280;62428;51.412;5.432;2023-01-28T06:02:26;102798.34;;;1.77;81.22
74075;BME280;62428;51.412;5.432;2023-01-28T06:04:51;102804.00;;;1.74;81.17
74075;BME280;62428;51.412;5.432;2023-01-28T06:07:16;102800.72;;;1.72;81.61
74075;BME280;62428;51.412;5.432;2023-01-28T06:09:45;102802.53;;;1.71;82.03
74075;BME280;62428;51.412;5.432;2023-01-28T06:12:10;102806.03;;;1.72;81.63
74075;BME280;62428;51.412;5.432;2023-01-28T06:14:35;102811.69;;;1.69;81.08
74075;BME280;62428;51.412;5.432;2023-01-28T06:17:01;102814.34;;;1.69;82.04
74075;BME280;62428;51.412;5.432;2023-01-28T06:19:26;102811.69;;;1.69;82.16
74075;BME280;62428;51.412;5.432;2023-01-28T06:21:52;102820.44;;;1.69;82.18
74075;BME280;62428;51.412;5.432;2023-01-28T06:24:17;102824.94;;;1.69;81.83
74075;BME280;62428;51.412;5.432;2023-01-28T06:26:43;102821.84;;;1.65;79.19
74075;BME280;62428;51.412;5.432;2023-01-28T06:29:08;102818.91;;;1.60;77.75
74075;BME280;62428;51.412;5.432;2023-01-28T06:31:34;102814.00;;;1.57;77.21
74075;BME280;62428;51.412;5.432;2023-01-28T06:34:00;102817.63;;;1.56;78.34
74075;BME280;62428;51.412;5.432;2023-01-28T06:36:25;102818.91;;;1.60;79.59
74075;BME280;62428;51.412;5.432;2023-01-28T06:38:51;102820.38;;;1.63;80.36
74075;BME280;62428;51.412;5.432;2023-01-28T06:41:16;102828.16;;;1.64;80.56
74075;BME280;62428;51.412;5.432;2023-01-28T06:43:42;102827.31;;;1.64;80.84
74075;BME280;62428;51.412;5.432;2023-01-28T06:46:07;102833.25;;;1.66;81.18
74075;BME280;62428;51.412;5.432;2023-01-28T06:48:32;102824.47;;;1.65;80.84
74075;BME280;62428;51.412;5.432;2023-01-28T06:50:58;102830.81;;;1.64;78.74
74075;BME280;62428;51.412;5.432;2023-01-28T06:53:23;102826.84;;;1.60;78.86
74075;BME280;62428;51.412;5.432;2023-01-28T06:55:49;102838.66;;;1.58;78.66
74075;BME280;62428;51.412;5.432;2023-01-28T06:58:14;102836.00;;;1.58;78.79
74075;BME280;62428;51.412;5.432;2023-01-28T07:00:40;102835.19;;;1.57;78.22
74075;BME280;62428;51.412;5.432;2023-01-28T07:03:05;102836.19;;;1.56;77.34
74075;BME280;62428;51.412;5.432;2023-01-28T07:05:30;102841.84;;;1.53;75.65
74075;BME280;62428;51.412;5.432;2023-01-28T07:07:56;102836.91;;;1.50;77.88
74075;BME280;62428;51.412;5.432;2023-01-28T07:10:21;102834.28;;;1.50;77.99
74075;BME280;62428;51.412;5.432;2023-01-28T07:12:47;102833.25;;;1.51;77.24
74075;BME280;62428;51.412;5.432;2023-01-28T07:15:12;102844.03;;;1.49;76.43
74075;BME280;62428;51.412;5.432;2023-01-28T07:17:42;102848.69;;;1.47;76.41
74075;BME280;62428;51.412;5.432;2023-01-28T07:20:11;102855.63;;;1.48;74.60
74075;BME280;62428;51.412;5.432;2023-01-28T07:22:39;102846.41;;;1.44;74.99
74075;BME280;62428;51.412;5.432;2023-01-28T07:25:06;102851.06;;;1.42;74.82
74075;BME280;62428;51.412;5.432;2023-01-28T07:27:32;102845.09;;;1.40;74.21
74075;BME280;62428;51.412;5.432;2023-01-28T07:29:57;102849.59;;;1.40;74.71
74075;BME280;62428;51.412;5.432;2023-01-28T07:32:22;102850.59;;;1.39;75.18
74075;BME280;62428;51.412;5.432;2023-01-28T07:34:50;102850.59;;;1.39;75.03
74075;BME280;62428;51.412;5.432;2023-01-28T07:37:16;102862.03;;;1.39;75.50
74075;BME280;62428;51.412;5.432;2023-01-28T07:39:41;102856.72;;;1.39;76.39
74075;BME280;62428;51.412;5.432;2023-01-28T07:42:06;102856.56;;;1.41;75.94
74075;BME280;62428;51.412;5.432;2023-01-28T07:44:32;102852.06;;;1.41;76.77
74075;BME280;62428;51.412;5.432;2023-01-28T07:46:58;102863.94;;;1.45;77.79
74075;BME280;62428;51.412;5.432;2023-01-28T07:49:24;102860.94;;;1.48;77.00
74075;BME280;62428;51.412;5.432;2023-01-28T07:51:49;102871.38;;;1.50;77.11
74075;BME280;62428;51.412;5.432;2023-01-28T07:54:15;102863.59;;;1.48;76.81
74075;BME280;62428;51.412;5.432;2023-01-28T07:56:41;102868.72;;;1.50;76.41
74075;BME280;62428;51.412;5.432;2023-01-28T07:59:06;102874.00;;;1.50;77.63
74075;BME280;62428;51.412;5.432;2023-01-28T08:01:31;102878.47;;;1.49;77.28
74075;BME280;62428;51.412;5.432;2023-01-28T08:03:57;102874.00;;;1.50;76.27
74075;BME280;62428;51.412;5.432;2023-01-28T08:06:22;102876.66;;;1.50;76.66
74075;BME280;62428;51.412;5.432;2023-01-28T08:08:47;102886.06;;;1.52;77.63
74075;BME280;62428;51.412;5.432;2023-01-28T08:11:13;102879.09;;;1.51;75.20
74075;BME280;62428;51.412;5.432;2023-01-28T08:13:38;102884.59;;;1.50;74.58
74075;BME280;62428;51.412;5.432;2023-01-28T08:16:04;102883.31;;;1.46;74.72
74075;BME280;62428;51.412;5.432;2023-01-28T08:18:29;102883.69;;;1.43;74.46
74075;BME280;62428;51.412;5.432;2023-01-28T08:20:56;102883.84;;;1.41;74.47
74075;BME280;62428;51.412;5.432;2023-01-28T08:23:22;102897.28;;;1.40;74.72
74075;BME280;62428;51.412;5.432;2023-01-28T08:25:47;102896.47;;;1.39;75.63
74075;BME280;62428;51.412;5.432;2023-01-28T08:28:14;102901.75;;;1.39;76.50
74075;BME280;62428;51.412;5.432;2023-01-28T08:30:40;102920.59;;;1.44;75.49
74075;BME280;62428;51.412;5.432;2023-01-28T08:33:07;102910.63;;;1.46;75.36
74075;BME280;62428;51.412;5.432;2023-01-28T08:35:33;102917.75;;;1.46;75.62
74075;BME280;62428;51.412;5.432;2023-01-28T08:38:00;102912.25;;;1.47;76.01
74075;BME280;62428;51.412;5.432;2023-01-28T08:40:26;102923.50;;;1.49;77.25
74075;BME280;62428;51.412;5.432;2023-01-28T08:42:52;102922.97;;;1.54;75.87
74075;BME280;62428;51.412;5.432;2023-01-28T08:45:19;102925.06;;;1.59;74.45
74075;BME280;62428;51.412;5.432;2023-01-28T08:47:58;102929.72;;;1.57;73.85
